Latest Weather Observations for PORTABLE RFSNSW05

IDN60801

Issued at 2:52 pm EST Monday 23 September 2019 (issued every 10 minutes, with the page automatically refreshed every 10 minutes)

About weather observations | Map of weather stations | Latest weather observations for NSW | Other Formats
Station Details ID: 250055 Name: PORTABLE RFSNSW05 Lat: -35.27 Lon: 148.24 Height: 261.0 m
Data from the previous 72 hours. | See also: Recent months for locations in New South Wales
Date/Time
EST
Temp
°C
App
Temp
°C
Dew
Point
°C
Rel
Hum
%
Delta-T
°C
Wind Press
QNH
hPa
Press
MSL
hPa
Rain since
9am
mm
Dir  Spd
km/h
Gust
km/h
Spd
kts
Gust
kts
23/02:40pm 12.6 7.8 4.8 59 3.6 NE 19 20 10 11 - - 0.0
23/02:30pm 13.3 8.4 4.9 57 3.9 ENE 20 22 11 12 - - 0.0
23/02:20pm 14.2 9.9 5.2 54 4.3 E 17 20 9 11 - - 0.0
23/02:10pm 13.2 8.3 5.3 58 3.7 ENE 20 24 11 13 - - 0.0
23/02:00pm 13.5 8.9 5.5 58 3.8 NE 19 22 10 12 - - 0.0
23/01:50pm 12.7 7.0 4.7 58 3.7 NE 24 37 13 20 - - 0.0
23/01:40pm 14.2 9.4 5.6 56 4.1 ENE 20 37 11 20 - - 0.0
23/01:30pm 14.2 10.5 6.2 58 3.9 ENE 15 19 8 10 - - 0.0
23/01:20pm 13.6 9.0 5.7 59 3.8 E 19 22 10 12 - - 0.0
23/01:10pm 12.7 8.1 5.8 63 3.3 ENE 19 24 10 13 - - 0.0
23/01:00pm 11.8 6.3 4.0 59 3.5 ENE 22 28 12 15 - - 0.0
23/12:50pm 13.3 8.9 4.8 56 4.0 ENE 17 22 9 12 - - 0.0
23/12:40pm 13.3 9.7 4.9 57 3.9 ENE 13 17 7 9 - - 0.0
23/12:30pm 12.4 9.5 6.5 67 2.8 NNE 11 15 6 8 - - 0.0
23/12:20pm 13.7 9.4 7.0 64 3.3 ENE 19 26 10 14 - - 0.0
23/12:10pm 13.5 9.3 7.3 66 3.1 E 19 20 10 11 - - 0.0
23/12:00pm 12.9 10.4 8.3 73 2.3 E 11 15 6 8 - - 0.0
23/11:50am 11.2 8.5 7.5 78 1.8 E 11 17 6 9 - - 0.0
23/11:40am 12.1 9.4 7.3 72 2.4 NE 11 17 6 9 - - 0.0
23/11:30am 12.1 10.6 6.9 70 2.5 NNE 4 9 2 5 - - 0.0
23/11:20am 10.2 8.7 6.9 80 1.6 SSE 4 7 2 4 - - 0.0
23/11:10am 9.8 7.7 6.6 80 1.5 S 7 9 4 5 - - 0.0
23/11:00am 9.8 8.2 6.3 79 1.6 E 4 6 2 3 - - 0.0
23/10:50am 10.0 8.5 7.0 81 1.4 S 4 6 2 3 - - 0.0
23/10:40am 9.7 8.0 5.9 77 1.8 S 4 7 2 4 - - 0.0
23/10:30am 9.4 7.2 5.5 76 1.8 SSE 6 9 3 5 - - 0.0
23/10:20am 9.2 6.6 6.2 81 1.4 ESE 9 15 5 8 - - 0.0
23/10:10am 9.0 6.0 5.9 81 1.4 E 11 15 6 8 - - 0.0
23/10:00am 8.9 6.2 5.8 81 1.4 ENE 9 13 5 7 - - 0.0
23/09:50am 9.0 6.0 6.1 82 1.4 E 11 15 6 8 - - 0.0
23/09:40am 9.9 7.5 7.1 83 1.3 SSE 9 13 5 7 - - 0.0
23/09:30am 10.6 8.8 7.3 80 1.6 SSW 6 7 3 4 - - 0.0
23/09:20am 10.1 8.5 7.8 86 1.1 S 6 7 3 4 - - 0.0
23/09:10am 9.5 8.1 7.2 85 1.1 WNW 4 6 2 3 - - 0.0
23/09:00am 9.2 7.8 7.2 87 1.0 NNE 4 6 2 3 - - 0.0
23/08:50am 9.1 7.3 7.2 88 0.9 ENE 6 7 3 4 - - 0.0
23/08:40am 9.0 7.6 7.1 88 0.9 NE 4 6 2 3 - - 0.0
23/08:30am 8.6 6.5 6.5 87 1.0 N 7 11 4 6 - - 0.0
23/08:20am 8.5 6.4 6.8 89 0.8 N 7 9 4 5 - - 0.0
23/08:10am 8.3 6.2 6.7 90 0.8 NNW 7 9 4 5 - - 0.0
23/08:00am 8.4 6.8 6.5 88 0.9 N 4 7 2 4 - - 0.0
23/07:50am 8.4 7.2 6.4 87 0.9 W 2 4 1 2 - - 0.0
23/07:40am 7.8 6.2 6.4 91 0.6 SW 4 6 2 3 - - 0.0
23/07:30am 7.3 5.7 6.5 95 0.4 WNW 4 7 2 4 - - 0.0
23/07:20am 7.2 5.3 6.6 96 0.3 SSW 6 7 3 4 - - 0.0
23/07:10am 7.1 5.2 6.5 96 0.3 S 6 7 3 4 - - 0.0
23/07:00am 7.1 5.6 6.6 97 0.2 S 4 6 2 3 - - 0.0
23/06:50am 7.0 5.5 6.6 97 0.2 WSW 4 4 2 2 - - 0.0
23/06:40am 6.8 5.6 6.4 97 0.2 WSW 2 4 1 2 - - 0.0
23/06:30am 6.6 5.4 6.4 99 0.1 S 2 2 1 1 - - 0.0
23/06:20am 6.5 5.2 6.2 98 0.1 E 2 4 1 2 - - 0.0
23/06:10am 6.4 4.7 6.1 98 0.1 E 4 4 2 2 - - 0.0
23/06:00am 6.5 4.9 6.2 98 0.1 ENE 4 6 2 3 - - 0.0
23/05:50am 6.5 4.5 6.2 98 0.1 ENE 6 7 3 4 - - 0.0
23/05:40am 6.5 5.2 6.1 97 0.2 S 2 4 1 2 - - 0.0
23/05:30am 6.4 4.7 6.1 98 0.1 S 4 6 2 3 - - 0.0
23/05:20am 6.4 4.7 6.0 97 0.2 S 4 7 2 4 - - 0.0
23/05:10am 6.3 4.6 6.0 98 0.1 WSW 4 6 2 3 - - 0.0
23/05:00am 6.2 4.5 5.8 97 0.2 NNW 4 7 2 4 - - 0.0
23/04:50am 6.1 4.7 5.7 97 0.2 SSE 2 4 1 2 - - 0.0
23/04:40am 6.0 4.6 5.6 97 0.2 SSE 2 2 1 1 - - 0.0
23/04:30am 5.9 4.5 5.6 98 0.1 SE 2 2 1 1 - - 0.0
23/04:20am 5.9 4.9 5.5 97 0.2 CALM 0 0 0 0 - - 0.0
23/04:10am 5.9 4.5 5.5 97 0.2 NNE 2 2 1 1 - - 0.0
23/04:00am 5.9 4.5 5.5 97 0.2 NNE 2 2 1 1 - - 0.0
23/03:50am 5.9 4.9 5.5 97 0.2 CALM 0 2 0 1 - - 0.0
23/03:40am 5.8 4.4 5.5 98 0.1 S 2 2 1 1 - - 0.0
23/03:30am 5.9 4.1 5.5 97 0.2 SSW 4 4 2 2 - - 0.0
23/03:20am 6.1 4.3 5.6 97 0.2 S 4 6 2 3 - - 0.0
23/03:10am 6.1 5.1 5.6 97 0.2 CALM 0 2 0 1 - - 0.0
23/03:00am 5.9 4.5 5.6 98 0.1 W 2 4 1 2 - - 0.0
23/02:50am 5.7 3.9 5.4 98 0.1 N 4 4 2 2 - - 0.0
23/02:40am 5.6 3.8 5.3 98 0.1 NNE 4 6 2 3 - - 0.0
23/02:30am 5.5 4.0 5.0 97 0.2 E 2 4 1 2 - - 0.0
23/02:20am 5.6 4.5 5.0 96 0.3 CALM 0 2 0 1 - - 0.0
23/02:10am 5.7 4.2 5.0 95 0.3 S 2 4 1 2 - - 0.0
23/02:00am 5.8 4.3 4.9 94 0.4 SSW 2 2 1 1 - - 0.0
23/01:50am 5.9 4.0 4.9 93 0.4 WNW 4 4 2 2 - - 0.0
23/01:40am 6.0 4.5 5.2 95 0.4 WNW 2 4 1 2 - - 0.0
23/01:30am 6.2 4.8 5.5 95 0.3 NW 2 2 1 1 - - 0.0
23/01:20am 6.6 4.9 5.9 95 0.3 NNE 4 6 2 3 - - 0.0
23/01:10am 7.0 5.7 6.1 94 0.4 NNE 2 4 1 2 - - 0.0
23/01:00am 7.3 6.0 6.1 92 0.6 NW 2 4 1 2 - - 0.0
23/12:50am 7.5 6.2 6.0 90 0.7 E 2 2 1 1 - - 0.0
23/12:40am 7.6 5.9 5.8 88 0.8 SSW 4 6 2 3 - - 0.0
23/12:30am 7.7 6.0 5.9 88 0.8 SW 4 4 2 2 - - 0.0
23/12:20am 7.7 6.4 5.9 88 0.8 WSW 2 4 1 2 - - 0.0
23/12:10am 7.5 6.2 5.9 90 0.7 NW 2 4 1 2 - - 0.0
23/12:00am 7.3 5.6 5.9 91 0.6 N 4 4 2 2 - - 0.0
 
Date/Time
EST
Temp
°C
App
Temp
°C
Dew
Point
°C
Rel
Hum
%
Delta-T
°C
Wind Press
QNH
hPa
Press
MSL
hPa
Rain since
9am
mm
Dir  Spd
km/h
Gust
km/h
Spd
kts
Gust
kts
22/11:50pm 7.2 5.6 6.3 94 0.4 N 4 4 2 2 - - 0.0
22/11:40pm 7.5 6.2 6.2 91 0.6 N 2 4 1 2 - - 0.0
22/11:30pm 7.5 6.2 5.9 90 0.7 NW 2 4 1 2 - - 0.0
22/11:20pm 7.4 6.1 6.1 91 0.6 N 2 4 1 2 - - 0.0
22/11:10pm 7.3 6.0 6.0 91 0.6 NE 2 2 1 1 - - 0.0
22/11:00pm 7.4 6.1 6.0 91 0.6 WNW 2 4 1 2 - - 0.0
22/10:50pm 7.2 5.5 5.9 91 0.6 NNW 4 6 2 3 - - 0.0
22/10:40pm 6.9 5.6 5.9 93 0.5 WNW 2 4 1 2 - - 0.0
22/10:30pm 6.9 5.6 5.9 93 0.5 NW 2 4 1 2 - - 0.0
22/10:20pm 7.0 5.3 5.9 93 0.5 N 4 4 2 2 - - 0.0
22/10:10pm 7.0 5.3 6.0 93 0.5 N 4 4 2 2 - - 0.0
22/10:00pm 7.2 5.9 5.9 91 0.6 NE 2 4 1 2 - - 0.0
22/09:50pm 7.5 6.2 6.1 91 0.6 ENE 2 2 1 1 - - 0.0
22/09:40pm 8.0 6.7 6.0 87 0.9 N 2 4 1 2 - - 0.0
22/09:30pm 7.8 6.0 5.5 85 1.0 N 4 6 2 3 - - 0.0
22/09:20pm 7.9 6.0 5.0 82 1.3 NNW 4 6 2 3 - - 0.0
22/09:00pm 8.5 6.7 5.6 82 1.3 WNW 4 6 2 3 - - 0.0
22/08:50pm 8.2 6.3 4.9 80 1.5 WNW 4 6 2 3 - - 0.0
22/08:40pm 7.6 6.0 4.6 81 1.3 NW 2 4 1 2 - - 0.0
22/08:30pm 7.3 5.8 5.2 86 0.9 S 2 2 1 1 - - 0.0
22/08:20pm 7.7 5.8 5.0 83 1.2 W 4 6 2 3 - - 0.0
22/08:10pm 8.1 5.8 4.9 80 1.4 NNW 6 6 3 3 - - 0.0
22/08:00pm 8.1 6.2 4.8 80 1.5 N 4 6 2 3 - - 0.0
22/07:50pm 8.2 6.7 5.2 81 1.4 W 2 2 1 1 - - 0.0
22/07:40pm 8.6 7.2 5.3 80 1.5 W 2 2 1 1 - - 0.0
22/07:30pm 8.9 7.1 5.4 79 1.6 NW 4 6 2 3 - - 0.0
22/07:20pm 9.5 8.0 5.2 74 2.0 W 2 4 1 2 - - 0.0
22/07:10pm 9.7 8.2 4.8 71 2.2 SSW 2 4 1 2 - - 0.0
22/07:00pm 10.1 8.5 4.3 67 2.6 WNW 2 2 1 1 - - 0.0
22/06:50pm 10.4 8.5 4.8 68 2.6 WNW 4 4 2 2 - - 0.0
22/06:40pm 10.9 9.4 4.9 66 2.8 NNW 2 4 1 2 - - 0.0
22/06:30pm 11.0 9.2 5.4 68 2.6 N 4 4 2 2 - - 0.0
22/06:20pm 12.4 10.7 5.8 64 3.1 E 4 4 2 2 - - 0.0
22/06:00pm 13.8 11.3 3.7 50 4.6 E 6 6 3 3 - - 0.0
22/05:50pm 14.5 12.2 4.8 52 4.6 E 6 6 3 3 - - 0.0
22/05:40pm 15.4 13.0 4.2 47 5.3 ENE 6 7 3 4 - - 0.0
22/05:30pm 15.6 12.7 4.6 48 5.2 NE 9 11 5 6 - - 0.0
22/05:20pm 16.8 14.3 3.9 42 6.1 ENE 6 9 3 5 - - 0.0
22/05:10pm 16.8 14.5 4.9 45 5.7 E 6 9 3 5 - - 0.0
22/05:00pm 16.4 13.5 4.4 45 5.7 E 9 13 5 7 - - 0.0
22/04:50pm 17.1 13.8 2.2 36 6.8 ENE 9 15 5 8 - - 0.0
22/04:40pm 16.9 14.3 3.3 40 6.4 ENE 6 11 3 6 - - 0.0
22/04:30pm 16.8 13.6 3.1 40 6.4 ENE 9 11 5 6 - - 0.0
22/04:20pm 16.4 13.2 3.2 41 6.1 SE 9 11 5 6 - - 0.0
22/04:10pm 16.3 13.8 4.9 46 5.5 SE 7 9 4 5 - - 0.0
22/04:00pm 16.7 13.3 4.1 43 6.0 SE 11 13 6 7 - - 0.0
22/03:50pm 17.2 13.2 3.0 38 6.6 ESE 13 17 7 9 - - 0.0
22/03:40pm 17.4 13.5 3.3 39 6.6 ESE 13 17 7 9 - - 0.0
22/03:30pm 16.8 12.4 2.7 39 6.5 E 15 19 8 10 - - 0.0
22/03:20pm 16.8 12.1 2.9 39 6.4 E 17 20 9 11 - - 0.0
22/03:10pm 17.4 14.1 4.7 43 6.1 ENE 11 13 6 7 - - 0.0
22/03:00pm 17.7 15.6 6.8 49 5.5 E 7 15 4 8 - - 0.0
22/02:50pm 17.9 15.0 4.7 41 6.4 SE 9 13 5 7 - - 0.0
22/02:40pm 18.1 14.4 2.4 35 7.3 ESE 11 15 6 8 - - 0.0
22/02:30pm 18.1 15.2 6.4 46 5.9 ENE 11 13 6 7 - - 0.0
22/02:20pm 17.1 13.4 4.4 43 6.1 ENE 13 17 7 9 - - 0.0
22/02:00pm 17.5 13.7 5.7 46 5.8 ENE 15 17 8 9 - - 0.0
22/01:50pm 17.4 14.1 6.3 48 5.5 E 13 17 7 9 - - 0.0
22/01:40pm 18.0 14.2 5.9 45 6.0 ESE 15 19 8 10 - - 0.0
22/01:30pm 18.1 14.8 6.4 46 5.9 ESE 13 17 7 9 - - 0.0
22/01:20pm 17.9 13.9 5.1 43 6.2 SE 15 20 8 11 - - 0.0
22/01:10pm 17.9 13.5 4.8 42 6.4 SE 17 19 9 10 - - 0.0
22/01:00pm 17.6 13.8 3.9 40 6.5 E 13 17 7 9 - - 0.0
22/12:50pm 16.3 12.3 5.1 47 5.4 ENE 15 20 8 11 - - 0.0
22/12:40pm 17.3 13.1 5.6 46 5.7 E 17 19 9 10 - - 0.0
22/12:30pm 17.5 14.2 4.7 42 6.2 E 11 17 6 9 - - 0.0
22/12:20pm 17.3 14.0 4.4 42 6.2 ESE 11 17 6 9 - - 0.0
22/12:10pm 16.5 13.2 6.2 50 5.1 E 13 19 7 10 - - 0.0
22/12:00pm 16.9 13.6 6.6 50 5.1 E 13 17 7 9 - - 0.0
22/11:50am 16.5 13.8 5.6 48 5.3 E 9 15 5 8 - - 0.0
22/11:40am 16.5 13.2 4.7 45 5.7 ESE 11 17 6 9 - - 0.0
22/11:30am 16.7 13.5 5.1 46 5.6 E 11 13 6 7 - - 0.0
22/11:20am 16.7 13.4 4.3 43 5.9 - 11 13 6 7 - - 0.0
22/11:10am 16.5 12.8 4.2 44 5.8 ESE 13 15 7 8 - - 0.0
22/11:00am 16.4 13.3 5.6 49 5.3 E 11 17 6 9 - - 0.0
22/10:50am 16.2 13.4 5.2 48 5.3 E 9 15 5 8 - - 0.0
22/10:40am 15.9 13.3 6.1 52 4.8 ENE 9 15 5 8 - - 0.0
22/10:30am 15.9 13.5 7.1 56 4.4 NE 9 15 5 8 - - 0.0
22/10:20am 15.8 12.9 4.6 47 5.3 E 9 13 5 7 - - 0.0
22/10:10am 16.2 14.3 6.5 52 4.8 - 6 9 3 5 - - 0.0
22/10:00am 15.5 14.5 8.7 64 3.5 WSW 4 7 2 4 - - 0.0
22/09:50am 14.8 13.2 8.9 68 3.0 SSW 7 11 4 6 - - 0.0
22/09:40am 14.7 13.1 8.1 64 3.3 SSE 6 7 3 4 - - 0.0
22/09:30am 14.9 13.9 9.0 68 3.1 ESE 4 7 2 4 - - 0.0
22/09:20am 14.4 13.1 7.8 64 3.3 ENE 4 6 2 3 - - 0.0
22/09:10am 14.2 13.1 8.4 68 2.9 NNE 4 6 2 3 - - 0.0
22/09:00am 14.2 13.2 8.8 70 2.8 NNE 4 6 2 3 - - 0.0
22/08:50am 14.4 13.4 8.9 69 2.8 W 4 6 2 3 - - 0.0
22/08:40am 14.1 13.1 8.9 71 2.7 NW 4 6 2 3 - - 0.0
22/08:30am 13.7 13.2 9.3 75 2.3 SW 2 4 1 2 - - 0.0
22/08:20am 13.1 12.1 8.8 75 2.2 W 4 6 2 3 - - 0.0
22/08:10am 12.7 12.0 10.0 84 1.4 W 4 6 2 3 - - 0.0
22/08:00am 12.1 11.1 8.9 81 1.6 W 4 6 2 3 - - 0.0
22/07:50am 12.0 11.1 9.1 82 1.5 W 4 6 2 3 - - 0.0
22/07:40am 11.5 10.9 8.9 84 1.3 NNW 2 2 1 1 - - 0.0
22/07:30am 10.4 9.4 8.9 90 0.8 NE 4 4 2 2 - - 0.0
22/07:20am 9.8 8.4 8.7 93 0.5 NE 6 7 3 4 - - 0.0
22/07:10am 9.5 8.5 8.7 95 0.4 NNE 4 6 2 3 - - 0.0
22/07:00am 9.1 8.5 8.8 98 0.1 NE 2 4 1 2 - - 0.0
22/06:50am 8.4 7.6 8.3 99 0.0 SSE 2 2 1 1 - - 0.0
22/06:40am 7.8 7.3 7.8 100 0.0 CALM 0 2 0 1 - - 0.0
22/06:30am 7.1 6.0 7.1 100 0.0 WSW 2 4 1 2 - - 0.0
22/06:20am 6.8 5.3 6.8 100 0.0 WNW 4 4 2 2 - - 0.0
22/06:10am 6.5 4.9 6.5 100 0.0 NW 4 4 2 2 - - 0.0
22/06:00am 6.5 4.5 6.4 99 0.0 N 6 6 3 3 - - 0.0
22/05:50am 6.4 4.4 6.4 100 0.0 N 6 6 3 3 - - 0.0
22/05:40am 6.3 4.3 6.3 100 0.0 N 6 6 3 3 - - 0.0
22/05:30am 6.3 4.7 6.3 100 0.0 N 4 6 2 3 - - 0.0
22/05:20am 6.7 5.6 6.7 100 0.0 NNW 2 2 1 1 - - 0.0
22/05:10am 6.8 5.7 6.8 100 0.0 NNW 2 4 1 2 - - 0.0
22/05:00am 6.8 5.7 6.8 100 0.0 NW 2 6 1 3 - - 0.0
22/04:50am 7.0 5.9 7.0 100 0.0 SW 2 4 1 2 - - 0.0
22/04:40am 7.3 5.9 7.2 99 0.0 SSW 4 4 2 2 - - 0.0
22/04:30am 7.3 6.3 7.3 100 0.0 E 2 4 1 2 - - 0.0
22/04:20am 7.5 6.5 7.4 99 0.0 ENE 2 4 1 2 - - 0.0
22/04:10am 7.4 6.0 7.3 99 0.0 ESE 4 4 2 2 - - 0.0
22/04:00am 7.1 6.0 7.1 100 0.0 WNW 2 4 1 2 - - 0.0
22/03:50am 7.2 6.2 7.2 100 0.0 W 2 2 1 1 - - 0.0
22/03:40am 7.2 6.1 7.1 99 0.0 S 2 2 1 1 - - 0.0
22/03:30am 7.6 6.7 7.6 100 0.0 WNW 2 2 1 1 - - 0.0
22/03:20am 7.6 6.6 7.5 99 0.0 W 2 4 1 2 - - 0.0
22/03:10am 8.0 7.1 7.8 99 0.1 SSW 2 4 1 2 - - 0.0
22/03:00am 8.3 7.1 8.2 99 0.0 S 4 6 2 3 - - 0.0
22/02:50am 8.4 7.6 8.1 98 0.1 SSE 2 2 1 1 - - 0.0
22/02:40am 8.6 7.8 8.1 97 0.2 NNW 2 4 1 2 - - 0.0
22/02:30am 8.9 8.2 8.5 97 0.2 WNW 2 2 1 1 - - 0.0
22/02:20am 9.0 8.3 8.7 98 0.1 W 2 2 1 1 - - 0.0
22/02:10am 8.9 8.2 8.5 97 0.2 E 2 2 1 1 - - 0.0
22/02:00am 9.1 8.3 8.3 95 0.4 NNW 2 4 1 2 - - 0.0
22/01:50am 9.4 8.3 8.5 94 0.4 WNW 4 6 2 3 - - 0.0
22/01:40am 9.5 8.5 8.8 95 0.3 W 4 6 2 3 - - 0.0
22/01:30am 10.0 9.2 9.5 97 0.3 WSW 4 6 2 3 - - 0.0
22/01:20am 10.2 9.4 9.8 97 0.2 S 4 6 2 3 - - 0.0
22/01:10am 10.5 10.1 9.8 95 0.4 SW 2 2 1 1 - - 0.0
22/01:00am 10.7 10.0 9.9 95 0.4 SSW 4 6 2 3 - - 0.0
22/12:50am 11.2 10.8 9.6 90 0.8 W 2 4 1 2 - - 0.0
22/12:40am 11.1 10.3 9.7 91 0.7 WNW 4 4 2 2 - - 0.0
22/12:30am 11.3 11.1 10.4 94 0.5 E 2 4 1 2 - - 0.0
22/12:20am 11.7 11.5 10.4 92 0.7 S 2 4 1 2 - - 0.0
22/12:10am 11.9 11.6 10.1 89 0.9 W 2 2 1 1 - - 0.0
22/12:00am 11.7 10.5 10.3 91 0.7 NNE 7 11 4 6 - - 0.0
 
Date/Time
EST
Temp
°C
App
Temp
°C
Dew
Point
°C
Rel
Hum
%
Delta-T
°C
Wind Press
QNH
hPa
Press
MSL
hPa
Rain since
9am
mm
Dir  Spd
km/h
Gust
km/h
Spd
kts
Gust
kts
21/11:50pm 11.8 11.0 11.2 96 0.3 N 6 11 3 6 - - 0.0
21/11:40pm 12.0 12.2 11.8 99 0.1 ESE 2 4 1 2 - - 0.0
21/11:30pm 12.0 11.8 11.7 98 0.2 ENE 4 4 2 2 - - 0.0
21/11:20pm 12.2 12.4 11.9 98 0.2 NE 2 4 1 2 - - 0.0
21/11:10pm 12.4 12.3 12.1 98 0.2 NE 4 4 2 2 - - 0.0
21/11:00pm 12.5 12.8 12.1 97 0.2 ENE 2 2 1 1 - - 0.0
21/10:50pm 12.6 12.5 12.2 97 0.2 N 4 4 2 2 - - 0.0
21/10:40pm 12.5 12.4 12.2 98 0.2 N 4 6 2 3 - - 0.0
21/10:30pm 12.6 12.9 12.3 98 0.2 NNE 2 4 1 2 - - 0.0
21/10:20pm 12.7 13.0 12.3 97 0.2 SE 2 2 1 1 - - 0.0
21/10:10pm 12.9 13.3 12.4 97 0.3 SSW 2 4 1 2 - - 0.0
21/10:00pm 13.0 13.3 12.3 95 0.4 SSW 2 4 1 2 - - 0.0
21/09:50pm 13.0 13.0 12.4 96 0.3 NNW 4 6 2 3 - - 0.0
21/09:40pm 13.4 13.4 12.4 94 0.5 N 4 6 2 3 - - 0.0
21/09:30pm 13.8 14.2 12.6 92 0.7 SSW 2 4 1 2 - - 0.0
21/09:20pm 14.0 14.2 12.0 88 1.1 W 2 4 1 2 - - 0.0
21/09:10pm 14.0 13.4 11.8 86 1.2 NE 6 7 3 4 - - 0.0
21/09:00pm 14.3 13.4 11.4 83 1.6 N 7 7 4 4 - - 0.0
21/08:50pm 14.6 14.1 11.9 84 1.5 NE 6 7 3 4 - - 0.0
21/08:40pm 14.7 13.5 11.6 82 1.7 NE 9 11 5 6 - - 0.0
21/08:30pm 14.8 13.7 12.1 84 1.5 NE 9 11 5 6 - - 0.0
21/08:20pm 14.8 14.2 12.3 85 1.4 ENE 7 9 4 5 - - 0.0
21/08:10pm 15.1 15.3 13.1 88 1.1 NNW 4 6 2 3 - - 0.0
21/08:00pm 14.9 14.4 12.8 87 1.2 N 7 9 4 5 - - 0.0
21/07:50pm 15.0 15.0 12.3 84 1.5 WNW 4 7 2 4 - - 0.0
21/07:40pm 15.0 15.7 13.3 89 1.0 NNE 2 6 1 3 - - 0.0
21/07:30pm 15.2 15.7 12.8 85 1.3 NNW 2 2 1 1 - - 0.0
21/07:20pm 15.3 15.3 12.4 83 1.6 NNE 4 6 2 3 - - 0.0
21/07:10pm 15.8 16.3 12.7 82 1.7 SSW 2 2 1 1 - - 0.0
21/07:00pm 16.0 16.2 12.0 77 2.2 SW 2 4 1 2 - - 0.0
21/06:50pm 16.0 15.9 12.2 78 2.1 SW 4 7 2 4 - - 0.0
21/06:40pm 16.2 15.9 12.7 80 2.0 SE 6 6 3 3 - - 0.0
21/06:30pm 16.9 16.7 11.7 71 2.9 E 4 4 2 2 - - 0.0
21/06:20pm 17.1 16.7 11.0 67 3.3 E 4 6 2 3 - - 0.0
21/06:10pm 16.8 16.5 11.5 71 2.9 NNE 4 6 2 3 - - 0.0
21/06:00pm 16.9 17.2 13.4 80 2.0 WNW 4 6 2 3 - - 0.0
21/05:50pm 16.8 17.2 13.7 82 1.8 NW 4 7 2 4 - - 0.0
21/05:40pm 16.9 17.3 13.6 81 1.9 ESE 4 7 2 4 - - 0.0
21/05:30pm 17.0 17.3 15.1 88 1.1 E 7 11 4 6 - - 0.0
21/05:20pm 17.1 16.9 14.7 86 1.4 S 9 9 5 5 - - 0.0
21/05:10pm 17.2 17.7 14.9 86 1.3 SW 6 9 3 5 - - 0.0
21/05:00pm 17.1 17.3 14.7 86 1.4 SW 7 11 4 6 - - 0.0
21/04:50pm 16.9 16.6 14.5 86 1.4 SSW 9 11 5 6 - - 0.0
21/04:40pm 16.8 15.9 14.9 88 1.1 S 13 15 7 8 - - 0.0
21/04:30pm 16.8 15.5 14.9 88 1.1 S 15 19 8 10 - - 0.0
21/04:20pm 16.6 13.6 14.8 89 1.0 S 24 32 13 17 - - 0.0
21/04:10pm 16.9 14.6 14.6 86 1.3 S 20 32 11 17 - - 0.0
21/04:00pm 17.5 15.4 14.8 84 1.6 S 19 30 10 16 - - 0.0
21/03:50pm 17.7 14.3 14.8 83 1.7 SE 26 32 14 17 - - 0.0
21/03:40pm 19.3 16.5 13.3 68 3.4 SSW 20 30 11 16 - - 0.0
21/03:30pm 19.8 16.2 13.1 65 3.8 SSW 24 30 13 16 - - 0.0
21/03:20pm 20.3 16.2 12.7 61 4.3 SSW 26 37 14 20 - - 0.0
21/03:10pm 20.3 17.4 12.8 62 4.3 SSW 20 30 11 16 - - 0.0
21/02:50pm 20.1 16.3 12.3 61 4.4 SSW 24 32 13 17 - - 0.0
21/02:40pm 19.9 16.6 12.7 63 4.1 SSW 22 32 12 17 - - 0.0
21/02:30pm 19.9 15.4 12.5 62 4.2 SSW 28 32 15 17 - - 0.0
21/02:20pm 19.8 15.4 12.9 64 3.9 S 28 35 15 19 - - 0.0
21/02:10pm 19.8 15.2 12.4 62 4.2 S 28 33 15 18 - - 0.0
21/02:00pm 19.7 15.2 12.5 63 4.1 S 28 41 15 22 - - 0.0
21/01:50pm 19.7 16.2 12.1 61 4.3 S 22 28 12 15 - - 0.0
21/01:40pm 20.0 16.6 12.5 62 4.3 S 22 28 12 15 - - 0.0
21/01:30pm 20.1 19.8 13.3 65 3.9 SSW 7 13 4 7 - - 0.0
21/01:20pm 19.6 18.3 12.5 63 4.0 SSW 11 15 6 8 - - 0.0
21/01:10pm 19.3 17.0 11.9 62 4.1 SW 15 20 8 11 - - 0.0
21/01:00pm 19.2 16.1 12.1 63 4.0 SSW 20 32 11 17 - - 0.0
21/12:50pm 18.8 16.2 11.9 64 3.9 SSW 17 24 9 13 - - 0.0
21/12:40pm 18.8 16.4 12.6 67 3.5 SW 17 32 9 17 - - 0.0
21/12:30pm 18.7 14.1 12.2 66 3.7 S 28 39 15 21 - - 0.0
21/12:20pm 18.5 14.9 13.1 71 3.1 SSW 24 32 13 17 - - 0.0
21/12:10pm 18.0 14.9 13.3 74 2.7 S 22 30 12 16 - - 0.0
21/12:00pm 18.1 15.4 13.5 74 2.6 S 20 26 11 14 - - 0.0
21/11:50am 18.4 16.0 13.7 74 2.7 S 19 24 10 13 - - 0.0
21/11:40am 18.8 16.4 13.8 72 2.9 S 19 24 10 13 - - 0.0
21/11:30am 20.0 16.0 13.0 64 4.0 S 26 33 14 18 - - 0.0
21/11:20am 20.6 15.8 11.7 56 5.0 S 28 35 15 19 - - 0.0
21/11:10am 20.7 15.3 10.8 53 5.5 S 30 35 16 19 - - 0.0
21/11:00am 21.0 15.2 10.8 52 5.7 SSW 32 41 17 22 - - 0.0
21/10:50am 20.7 14.9 10.9 53 5.4 S 32 41 17 22 - - 0.0
21/10:40am 20.7 14.2 10.4 51 5.7 SSW 35 44 19 24 - - 0.0
21/10:30am 20.6 14.1 10.3 51 5.6 S 35 48 19 26 - - 0.0
21/10:20am 20.5 14.4 10.5 52 5.5 S 33 39 18 21 - - 0.0
21/10:10am 20.6 15.5 10.5 52 5.6 S 28 35 15 19 - - 0.0
21/10:00am 20.4 17.0 11.2 55 5.1 S 20 26 11 14 - - 0.0
21/09:50am 19.4 18.1 11.3 59 4.5 WSW 9 13 5 7 - - 0.0
21/09:40am 19.3 17.7 11.7 61 4.2 WSW 11 17 6 9 - - 0.0
21/09:30am 19.2 18.4 11.6 61 4.2 WSW 7 15 4 8 - - 0.0
21/09:20am 19.1 17.9 11.7 62 4.1 SW 9 13 5 7 - - 0.0
21/09:10am 18.7 17.4 11.4 62 4.0 SW 9 15 5 8 - - 0.0
21/09:00am 18.0 16.5 12.0 68 3.3 SSW 11 15 6 8 - - 0.0
21/08:50am 17.6 14.7 12.3 71 3.0 SSW 19 26 10 14 - - 0.0
21/08:40am 18.9 14.7 12.3 65 3.7 SSW 26 37 14 20 - - 0.0
21/08:30am 19.5 14.8 10.5 56 4.9 SSW 26 30 14 16 - - 0.0
21/08:20am 19.8 14.9 10.0 53 5.3 SSW 26 35 14 19 - - 0.0
21/08:10am 19.7 13.6 10.4 55 5.1 SSW 33 46 18 25 - - 0.0
21/08:00am 20.4 15.7 10.5 53 5.4 SSW 26 33 14 18 - - 0.0
21/07:50am 20.4 14.3 9.8 50 5.8 SSW 32 41 17 22 - - 0.0
21/07:40am 20.6 14.6 10.0 50 5.8 SSW 32 43 17 23 - - 0.0
21/07:30am 20.5 14.3 9.9 50 5.8 SSW 33 44 18 24 - - 0.0
21/07:20am 20.7 15.0 9.7 49 6.0 SSW 30 37 16 20 - - 0.0
21/07:10am 20.5 16.0 9.9 50 5.8 SSW 24 28 13 15 - - 0.0
21/07:00am 20.9 16.7 9.8 49 6.0 SW 22 30 12 16 - - 0.0
21/06:50am 20.8 16.6 9.6 48 6.1 SSW 22 30 12 16 - - 0.0
21/06:40am 20.6 16.9 9.5 49 6.0 SSW 19 30 10 16 - - 0.0
21/06:30am 20.1 17.1 9.1 49 5.9 SSW 15 30 8 16 - - 0.0
21/06:20am 19.1 17.7 9.5 53 5.1 SW 7 17 4 9 - - 0.0
21/06:10am 18.4 17.4 10.4 59 4.3 WNW 6 7 3 4 - - 0.0
21/06:00am 18.7 17.8 10.5 59 4.5 WNW 6 9 3 5 - - 0.0
21/05:50am 18.6 17.1 10.5 59 4.4 W 9 11 5 6 - - 0.0
21/05:40am 18.8 17.6 10.3 57 4.6 W 7 9 4 5 - - 0.0
21/05:30am 18.8 17.3 10.5 58 4.5 W 9 13 5 7 - - 0.0
21/05:20am 18.9 16.6 10.6 58 4.5 W 13 17 7 9 - - 0.0
21/05:10am 18.9 17.0 10.4 57 4.6 W 11 15 6 8 - - 0.0
21/05:00am 18.9 16.2 10.5 58 4.6 W 15 15 8 8 - - 0.0
21/04:50am 18.6 16.7 10.5 59 4.4 W 11 17 6 9 - - 0.0
21/04:40am 17.8 16.2 10.3 61 4.0 WNW 9 13 5 7 - - 0.0
21/04:30am 17.0 16.5 10.9 67 3.3 WNW 4 7 2 4 - - 0.0
21/04:20am 17.5 16.8 11.9 69 3.1 WNW 7 13 4 7 - - 0.0
21/04:10am 17.9 17.2 11.4 65 3.6 NW 6 7 3 4 - - 0.0
21/04:00am 17.7 17.2 10.9 64 3.7 WNW 4 7 2 4 - - 0.0
21/03:50am 18.1 17.3 11.1 63 3.8 WNW 6 9 3 5 - - 0.0
21/03:40am 17.9 17.4 10.9 63 3.8 W 4 7 2 4 - - 0.0
21/03:30am 17.9 17.2 11.4 65 3.6 W 6 7 3 4 - - 0.0
21/03:20am 17.9 17.3 11.6 66 3.5 WNW 6 9 3 5 - - 0.0
21/03:10am 17.4 16.4 10.4 63 3.8 WNW 6 9 3 5 - - 0.0
21/03:00am 16.6 15.8 11.1 70 3.0 NNE 6 7 3 4 - - 0.0
21/02:50am 16.2 15.9 11.4 73 2.6 NNE 4 6 2 3 - - 0.0
21/02:40am 16.0 15.6 11.1 72 2.7 N 4 6 2 3 - - 0.0
21/02:30am 16.2 15.9 11.6 74 2.5 NE 4 6 2 3 - - 0.0
21/02:20am 16.4 16.5 11.5 73 2.7 NE 2 6 1 3 - - 0.0
21/02:10am 16.8 16.8 11.3 70 3.0 NNW 2 4 1 2 - - 0.0
21/02:00am 16.8 16.5 11.5 71 2.9 ENE 4 7 2 4 - - 0.0
21/01:50am 16.9 16.2 11.4 70 3.0 NE 6 7 3 4 - - 0.0
21/01:40am 17.2 16.9 11.4 68 3.2 NE 4 7 2 4 - - 0.0
21/01:30am 17.0 16.3 11.4 69 3.1 NNE 6 11 3 6 - - 0.0
21/01:20am 17.3 16.5 11.6 69 3.1 ENE 7 11 4 6 - - 0.0
21/01:10am 16.8 15.1 11.3 70 3.0 ENE 11 13 6 7 - - 0.0
21/01:00am 17.2 15.7 11.8 70 3.0 ENE 11 15 6 8 - - 0.0
21/12:50am 17.6 15.7 11.9 69 3.2 ENE 13 17 7 9 - - 0.0
21/12:40am 17.7 16.1 11.7 68 3.3 ENE 11 15 6 8 - - 0.0
21/12:30am 17.3 15.3 11.6 69 3.1 ENE 13 15 7 8 - - 0.0
21/12:20am 17.4 16.2 11.5 68 3.3 ENE 9 11 5 6 - - 0.0
21/12:10am 18.0 16.9 12.0 68 3.3 E 9 15 5 8 - - 0.0
21/12:00am 17.9 17.0 11.5 66 3.5 ENE 7 11 4 6 - - 0.0
 
Date/Time
EST
Temp
°C
App
Temp
°C
Dew
Point
°C
Rel
Hum
%
Delta-T
°C
Wind Press
QNH
hPa
Press
MSL
hPa
Rain since
9am
mm
Dir  Spd
km/h
Gust
km/h
Spd
kts
Gust
kts
20/11:50pm 17.5 16.8 11.3 67 3.4 NE 6 11 3 6 - - 0.0
20/11:40pm 16.6 15.7 11.3 71 2.9 N 7 11 4 6 - - 0.0
20/11:30pm 15.8 15.1 11.9 77 2.1 NE 7 9 4 5 - - 0.0
20/11:20pm 16.7 16.5 11.9 73 2.7 N 4 6 2 3 - - 0.0
20/11:10pm 16.9 16.7 11.7 71 2.9 NNE 4 4 2 2 - - 0.0
20/11:00pm 16.8 16.7 12.0 73 2.7 N 4 6 2 3 - - 0.0
20/10:50pm 16.8 17.0 11.8 72 2.8 ENE 2 4 1 2 - - 0.0
20/10:40pm 16.6 16.3 11.5 72 2.8 NNW 4 7 2 4 - - 0.0
20/10:30pm 16.8 16.5 11.4 70 3.0 NNE 4 9 2 5 - - 0.0
20/10:20pm 16.7 16.1 11.6 72 2.8 NE 6 9 3 5 - - 0.0
20/10:10pm 16.5 15.8 11.4 72 2.8 ENE 6 13 3 7 - - 0.0
20/10:00pm 15.8 14.6 11.7 76 2.2 E 9 9 5 5 - - 0.0
20/09:50pm 16.3 15.2 11.9 75 2.4 E 9 11 5 6 - - 0.0
20/09:40pm 17.3 16.4 11.4 68 3.2 ENE 7 9 4 5 - - 0.0
20/09:30pm 17.3 16.7 11.6 69 3.1 ENE 6 7 3 4 - - 0.0
20/09:20pm 17.9 17.3 11.7 67 3.4 ENE 6 11 3 6 - - 0.0
20/09:10pm 18.8 18.4 12.3 66 3.7 SE 6 9 3 5 - - 0.0
20/09:00pm 20.2 19.4 11.6 57 4.8 SW 7 13 4 7 - - 0.0
20/08:50pm 20.3 19.1 11.7 57 4.8 WSW 9 15 5 8 - - 0.0
20/08:40pm 20.4 18.8 11.7 57 4.9 WSW 11 15 6 8 - - 0.0
20/08:30pm 20.6 19.0 11.5 56 5.1 WSW 11 15 6 8 - - 0.0
20/08:20pm 20.8 18.7 11.1 53 5.4 WSW 13 17 7 9 - - 0.0
20/08:10pm 20.5 18.6 10.4 52 5.5 WSW 11 15 6 8 - - 0.0
20/08:00pm 18.9 17.3 8.7 51 5.4 WSW 7 11 4 6 - - 0.0
20/07:50pm 17.4 16.1 9.1 58 4.4 WSW 6 7 3 4 - - 0.0
20/07:40pm 17.5 16.8 10.0 61 4.0 SW 4 6 2 3 - - 0.0
20/07:30pm 18.0 17.0 10.2 60 4.2 WSW 6 7 3 4 - - 0.0
20/07:20pm 18.8 17.7 10.7 59 4.4 W 7 7 4 4 - - 0.0
20/07:10pm 20.2 18.8 10.8 54 5.2 WSW 9 11 5 6 - - 0.0
20/07:00pm 21.2 19.5 9.7 47 6.3 WSW 9 11 5 6 - - 0.0
20/06:50pm 21.0 18.8 9.2 46 6.4 WSW 11 13 6 7 - - 0.0
20/06:40pm 20.4 18.4 10.1 51 5.6 W 11 13 6 7 - - 0.0
20/06:30pm 20.9 18.7 9.4 47 6.2 W 11 13 6 7 - - 0.0
20/06:20pm 20.1 18.0 9.9 52 5.5 W 11 15 6 8 - - 0.0
20/06:10pm 19.7 17.9 10.9 57 4.9 W 11 11 6 6 - - 0.0
20/06:00pm 21.0 19.7 11.4 54 5.4 W 9 11 5 6 - - 0.0
20/05:50pm 22.3 20.6 10.0 45 6.8 W 9 11 5 6 - - 0.0
20/05:40pm 22.7 21.0 9.7 43 7.1 WSW 9 11 5 6 - - 0.0
20/05:30pm 23.1 21.8 10.0 43 7.2 WSW 7 7 4 4 - - 0.0
20/05:20pm 23.4 21.6 9.6 41 7.6 WSW 9 13 5 7 - - 0.0
20/05:10pm 23.6 22.0 10.1 42 7.5 WSW 9 11 5 6 - - 0.0
20/05:00pm 23.8 22.7 10.5 43 7.4 SW 7 9 4 5 - - 0.0
20/04:50pm 24.2 22.4 10.8 43 7.5 SW 11 13 6 7 - - 0.0
20/04:40pm 24.6 22.7 10.5 41 7.9 SW 11 15 6 8 - - 0.0
20/04:30pm 24.8 22.7 9.6 38 8.4 SW 11 15 6 8 - - 0.0
20/04:20pm 24.8 22.4 10.2 39 8.2 SW 13 19 7 10 - - 0.0
20/04:10pm 25.4 23.0 10.1 38 8.6 SW 13 19 7 10 - - 0.0
20/04:00pm 25.4 23.9 10.6 39 8.4 SW 9 13 5 7 - - 0.0
20/03:50pm 24.8 23.0 10.9 41 7.9 SW 11 15 6 8 - - 0.0
20/03:40pm 25.0 23.4 11.7 43 7.6 SSW 11 15 6 8 - - 0.0
20/03:30pm 25.1 22.8 10.5 39 8.2 SW 13 17 7 9 - - 0.0
20/03:20pm 25.4 23.2 10.8 40 8.3 SW 13 19 7 10 - - 0.0
20/03:10pm 25.3 23.2 11.1 41 8.1 SW 13 17 7 9 - - 0.0
20/03:00pm 25.2 23.5 11.3 41 7.9 SW 11 17 6 9 - - 0.0

Other formats

Comma delimited format used in spreadsheet applications
http://www.bom.gov.au/fwo/IDN60801/IDN60801.99108.axf

JavaScript Object Notation format (JSON) in row-major order
http://www.bom.gov.au/fwo/IDN60801/IDN60801.99108.json

Data quality

Most of these data are generated automatically and are frequently updated. Quality checks on data are not normally performed. It is possible for incorrect values to appear. Refer to information at About Latest Weather Observations and please check the disclaimer before using these data.